sensor_id;sensor_type;location;lat;lon;timestamp;P1;durP1;ratioP1;P2;durP2;ratioP2
25972;SDS011;13765;51.166;4.466;2022-10-04T00:00:24;18.60;;;6.82;;
25972;SDS011;13765;51.166;4.466;2022-10-04T00:02:55;22.60;;;5.78;;
25972;SDS011;13765;51.166;4.466;2022-10-04T00:05:35;14.70;;;5.20;;
25972;SDS011;13765;51.166;4.466;2022-10-04T00:08:40;24.83;;;6.50;;
25972;SDS011;13765;51.166;4.466;2022-10-04T00:11:04;21.45;;;6.80;;
25972;SDS011;13765;51.166;4.466;2022-10-04T00:13:40;24.33;;;7.22;;
25972;SDS011;13765;51.166;4.466;2022-10-04T00:16:18;15.70;;;6.00;;
25972;SDS011;13765;51.166;4.466;2022-10-04T00:19:01;16.45;;;5.88;;
25972;SDS011;13765;51.166;4.466;2022-10-04T00:29:41;22.70;;;6.55;;
25972;SDS011;13765;51.166;4.466;2022-10-04T00:32:22;16.67;;;6.32;;
25972;SDS011;13765;51.166;4.466;2022-10-04T00:34:50;15.40;;;5.13;;
25972;SDS011;13765;51.166;4.466;2022-10-04T00:37:20;16.10;;;5.25;;
25972;SDS011;13765;51.166;4.466;2022-10-04T00:39:57;18.67;;;6.40;;
25972;SDS011;13765;51.166;4.466;2022-10-04T00:43:18;20.67;;;5.20;;
25972;SDS011;13765;51.166;4.466;2022-10-04T00:45:40;16.13;;;5.60;;
25972;SDS011;13765;51.166;4.466;2022-10-04T00:48:45;19.58;;;5.95;;
25972;SDS011;13765;51.166;4.466;2022-10-04T00:51:36;19.50;;;5.43;;
25972;SDS011;13765;51.166;4.466;2022-10-04T00:54:12;15.00;;;5.50;;
25972;SDS011;13765;51.166;4.466;2022-10-04T00:56:46;17.77;;;5.95;;
25972;SDS011;13765;51.166;4.466;2022-10-04T01:05:02;15.75;;;6.05;;
25972;SDS011;13765;51.166;4.466;2022-10-04T01:07:39;16.85;;;5.80;;
25972;SDS011;13765;51.166;4.466;2022-10-04T01:15:39;16.83;;;5.72;;
25972;SDS011;13765;51.166;4.466;2022-10-04T01:18:28;14.55;;;4.68;;
25972;SDS011;13765;51.166;4.466;2022-10-04T01:23:31;14.52;;;6.55;;
25972;SDS011;13765;51.166;4.466;2022-10-04T01:29:05;16.08;;;6.50;;
25972;SDS011;13765;51.166;4.466;2022-10-04T01:31:35;15.80;;;5.35;;
25972;SDS011;13765;51.166;4.466;2022-10-04T01:34:03;19.13;;;6.32;;
25972;SDS011;13765;51.166;4.466;2022-10-04T01:36:30;18.38;;;6.18;;
25972;SDS011;13765;51.166;4.466;2022-10-04T01:38:59;18.20;;;7.28;;
25972;SDS011;13765;51.166;4.466;2022-10-04T01:43:56;19.15;;;6.78;;
25972;SDS011;13765;51.166;4.466;2022-10-04T01:46:30;22.95;;;6.43;;
25972;SDS011;13765;51.166;4.466;2022-10-04T01:49:05;14.37;;;5.37;;
25972;SDS011;13765;51.166;4.466;2022-10-04T01:51:37;16.30;;;5.72;;
25972;SDS011;13765;51.166;4.466;2022-10-04T01:54:17;16.83;;;7.13;;
25972;SDS011;13765;51.166;4.466;2022-10-04T01:56:51;15.05;;;4.95;;
25972;SDS011;13765;51.166;4.466;2022-10-04T01:59:40;13.30;;;5.93;;
25972;SDS011;13765;51.166;4.466;2022-10-04T02:02:22;17.15;;;6.45;;
25972;SDS011;13765;51.166;4.466;2022-10-04T02:05:11;17.48;;;6.13;;
25972;SDS011;13765;51.166;4.466;2022-10-04T02:07:41;16.90;;;6.80;;
25972;SDS011;13765;51.166;4.466;2022-10-04T02:10:11;19.08;;;6.18;;
25972;SDS011;13765;51.166;4.466;2022-10-04T02:12:48;16.02;;;5.43;;
25972;SDS011;13765;51.166;4.466;2022-10-04T02:15:19;17.20;;;5.95;;
25972;SDS011;13765;51.166;4.466;2022-10-04T02:17:51;19.15;;;6.25;;
25972;SDS011;13765;51.166;4.466;2022-10-04T02:20:20;19.27;;;5.95;;
25972;SDS011;13765;51.166;4.466;2022-10-04T02:22:50;16.83;;;5.65;;
25972;SDS011;13765;51.166;4.466;2022-10-04T02:25:20;18.25;;;5.97;;
25972;SDS011;13765;51.166;4.466;2022-10-04T02:27:53;12.43;;;5.25;;
25972;SDS011;13765;51.166;4.466;2022-10-04T02:30:20;20.05;;;6.82;;
25972;SDS011;13765;51.166;4.466;2022-10-04T02:32:47;18.58;;;7.10;;
25972;SDS011;13765;51.166;4.466;2022-10-04T02:35:26;15.27;;;5.72;;
25972;SDS011;13765;51.166;4.466;2022-10-04T02:38:18;14.63;;;6.00;;
25972;SDS011;13765;51.166;4.466;2022-10-04T02:40:46;16.00;;;5.78;;
25972;SDS011;13765;51.166;4.466;2022-10-04T02:43:14;16.38;;;6.40;;
25972;SDS011;13765;51.166;4.466;2022-10-04T02:45:48;16.08;;;6.18;;
25972;SDS011;13765;51.166;4.466;2022-10-04T02:48:26;25.20;;;8.40;;
25972;SDS011;13765;51.166;4.466;2022-10-04T02:51:13;18.42;;;7.10;;
25972;SDS011;13765;51.166;4.466;2022-10-04T02:56:21;19.52;;;6.70;;
25972;SDS011;13765;51.166;4.466;2022-10-04T02:58:49;15.25;;;6.35;;
25972;SDS011;13765;51.166;4.466;2022-10-04T03:01:26;20.45;;;7.22;;
25972;SDS011;13765;51.166;4.466;2022-10-04T03:04:01;17.95;;;6.63;;
25972;SDS011;13765;51.166;4.466;2022-10-04T03:06:29;19.77;;;7.22;;
25972;SDS011;13765;51.166;4.466;2022-10-04T03:08:58;19.13;;;6.68;;
25972;SDS011;13765;51.166;4.466;2022-10-04T03:11:29;17.05;;;6.65;;
25972;SDS011;13765;51.166;4.466;2022-10-04T03:14:02;17.65;;;7.13;;
25972;SDS011;13765;51.166;4.466;2022-10-04T03:16:37;17.80;;;8.13;;
25972;SDS011;13765;51.166;4.466;2022-10-04T03:19:06;20.13;;;7.43;;
25972;SDS011;13765;51.166;4.466;2022-10-04T03:21:38;17.67;;;7.22;;
25972;SDS011;13765;51.166;4.466;2022-10-04T03:24:08;15.68;;;7.70;;
25972;SDS011;13765;51.166;4.466;2022-10-04T03:29:11;23.65;;;6.13;;
25972;SDS011;13765;51.166;4.466;2022-10-04T03:31:41;22.48;;;7.75;;
25972;SDS011;13765;51.166;4.466;2022-10-04T03:34:14;15.32;;;6.55;;
25972;SDS011;13765;51.166;4.466;2022-10-04T03:36:43;18.25;;;7.13;;
25972;SDS011;13765;51.166;4.466;2022-10-04T03:39:10;23.35;;;6.10;;
25972;SDS011;13765;51.166;4.466;2022-10-04T03:41:42;20.38;;;6.15;;
25972;SDS011;13765;51.166;4.466;2022-10-04T03:44:17;15.93;;;6.28;;
25972;SDS011;13765;51.166;4.466;2022-10-04T03:46:45;14.20;;;6.35;;
25972;SDS011;13765;51.166;4.466;2022-10-04T03:49:15;14.23;;;5.85;;
25972;SDS011;13765;51.166;4.466;2022-10-04T03:51:50;23.63;;;7.63;;
25972;SDS011;13765;51.166;4.466;2022-10-04T03:54:20;18.67;;;6.63;;
25972;SDS011;13765;51.166;4.466;2022-10-04T03:56:49;21.17;;;7.03;;
25972;SDS011;13765;51.166;4.466;2022-10-04T03:59:16;15.98;;;6.78;;
25972;SDS011;13765;51.166;4.466;2022-10-04T04:09:36;16.92;;;6.57;;
25972;SDS011;13765;51.166;4.466;2022-10-04T04:12:17;19.05;;;7.30;;
25972;SDS011;13765;51.166;4.466;2022-10-04T04:14:58;14.43;;;5.30;;
25972;SDS011;13765;51.166;4.466;2022-10-04T04:19:53;17.42;;;6.82;;
25972;SDS011;13765;51.166;4.466;2022-10-04T04:22:23;19.45;;;6.95;;
25972;SDS011;13765;51.166;4.466;2022-10-04T04:24:56;16.15;;;5.95;;
25972;SDS011;13765;51.166;4.466;2022-10-04T04:27:28;21.73;;;7.38;;
25972;SDS011;13765;51.166;4.466;2022-10-04T04:30:00;20.00;;;5.22;;
25972;SDS011;13765;51.166;4.466;2022-10-04T04:32:42;17.80;;;5.75;;
25972;SDS011;13765;51.166;4.466;2022-10-04T04:35:20;12.73;;;5.47;;
25972;SDS011;13765;51.166;4.466;2022-10-04T04:40:45;19.17;;;6.35;;
25972;SDS011;13765;51.166;4.466;2022-10-04T04:43:20;16.27;;;5.75;;
25972;SDS011;13765;51.166;4.466;2022-10-04T04:45:50;16.50;;;5.97;;
25972;SDS011;13765;51.166;4.466;2022-10-04T04:48:20;17.13;;;7.28;;
25972;SDS011;13765;51.166;4.466;2022-10-04T04:50:54;17.63;;;5.82;;
25972;SDS011;13765;51.166;4.466;2022-10-04T04:53:28;15.65;;;5.80;;
25972;SDS011;13765;51.166;4.466;2022-10-04T04:55:58;16.52;;;6.45;;
25972;SDS011;13765;51.166;4.466;2022-10-04T04:58:30;16.08;;;5.85;;
25972;SDS011;13765;51.166;4.466;2022-10-04T05:04:00;17.88;;;6.13;;
25972;SDS011;13765;51.166;4.466;2022-10-04T05:06:30;15.40;;;5.88;;
25972;SDS011;13765;51.166;4.466;2022-10-04T05:08:58;16.80;;;5.55;;
25972;SDS011;13765;51.166;4.466;2022-10-04T05:11:32;17.27;;;6.47;;
25972;SDS011;13765;51.166;4.466;2022-10-04T05:16:44;22.60;;;6.25;;
25972;SDS011;13765;51.166;4.466;2022-10-04T05:19:19;19.13;;;5.63;;
25972;SDS011;13765;51.166;4.466;2022-10-04T05:21:46;16.05;;;5.78;;
25972;SDS011;13765;51.166;4.466;2022-10-04T05:24:28;13.43;;;5.30;;
25972;SDS011;13765;51.166;4.466;2022-10-04T05:27:04;17.10;;;4.97;;
25972;SDS011;13765;51.166;4.466;2022-10-04T05:29:56;15.93;;;5.53;;
25972;SDS011;13765;51.166;4.466;2022-10-04T05:35:17;19.92;;;4.80;;
25972;SDS011;13765;51.166;4.466;2022-10-04T05:40:46;13.32;;;4.95;;
25972;SDS011;13765;51.166;4.466;2022-10-04T05:46:57;15.23;;;5.13;;
25972;SDS011;13765;51.166;4.466;2022-10-04T05:49:00;12.48;;;5.07;;
25972;SDS011;13765;51.166;4.466;2022-10-04T05:51:33;13.50;;;5.30;;
25972;SDS011;13765;51.166;4.466;2022-10-04T05:54:14;15.50;;;6.30;;
25972;SDS011;13765;51.166;4.466;2022-10-04T06:05:12;17.70;;;5.03;;
25972;SDS011;13765;51.166;4.466;2022-10-04T06:07:45;17.88;;;6.13;;
25972;SDS011;13765;51.166;4.466;2022-10-04T06:19:24;19.57;;;6.50;;
25972;SDS011;13765;51.166;4.466;2022-10-04T06:24:40;19.98;;;5.45;;
25972;SDS011;13765;51.166;4.466;2022-10-04T06:27:16;20.55;;;6.30;;
25972;SDS011;13765;51.166;4.466;2022-10-04T06:30:04;20.33;;;6.53;;
25972;SDS011;13765;51.166;4.466;2022-10-04T06:48:46;19.27;;;6.88;;
25972;SDS011;13765;51.166;4.466;2022-10-04T06:57:29;17.23;;;5.97;;
25972;SDS011;13765;51.166;4.466;2022-10-04T07:08:02;16.23;;;5.95;;
25972;SDS011;13765;51.166;4.466;2022-10-04T07:10:55;18.88;;;7.10;;
25972;SDS011;13765;51.166;4.466;2022-10-04T07:18:30;20.25;;;6.25;;
25972;SDS011;13765;51.166;4.466;2022-10-04T07:21:05;23.30;;;7.20;;
25972;SDS011;13765;51.166;4.466;2022-10-04T07:23:37;20.08;;;6.50;;
25972;SDS011;13765;51.166;4.466;2022-10-04T07:26:15;26.55;;;8.20;;
25972;SDS011;13765;51.166;4.466;2022-10-04T07:28:56;22.17;;;6.75;;
25972;SDS011;13765;51.166;4.466;2022-10-04T07:31:47;20.10;;;7.55;;
25972;SDS011;13765;51.166;4.466;2022-10-04T07:34:28;18.90;;;6.65;;
25972;SDS011;13765;51.166;4.466;2022-10-04T07:36:59;21.92;;;7.38;;
25972;SDS011;13765;51.166;4.466;2022-10-04T07:42:27;17.45;;;5.80;;
25972;SDS011;13765;51.166;4.466;2022-10-04T07:45:16;21.52;;;5.78;;
25972;SDS011;13765;51.166;4.466;2022-10-04T07:47:44;17.83;;;6.35;;
25972;SDS011;13765;51.166;4.466;2022-10-04T07:50:24;18.42;;;5.50;;
25972;SDS011;13765;51.166;4.466;2022-10-04T07:55:47;15.77;;;5.43;;
25972;SDS011;13765;51.166;4.466;2022-10-04T08:00:58;24.15;;;6.10;;
25972;SDS011;13765;51.166;4.466;2022-10-04T08:06:37;21.27;;;6.95;;
25972;SDS011;13765;51.166;4.466;2022-10-04T08:09:36;19.58;;;5.93;;
25972;SDS011;13765;51.166;4.466;2022-10-04T08:18:02;17.05;;;5.55;;
25972;SDS011;13765;51.166;4.466;2022-10-04T08:20:50;15.20;;;5.20;;
25972;SDS011;13765;51.166;4.466;2022-10-04T08:46:54;12.15;;;4.03;;
25972;SDS011;13765;51.166;4.466;2022-10-04T08:55:30;23.20;;;5.80;;
25972;SDS011;13765;51.166;4.466;2022-10-04T08:58:12;12.35;;;4.28;;
25972;SDS011;13765;51.166;4.466;2022-10-04T09:00:58;13.15;;;4.30;;
25972;SDS011;13765;51.166;4.466;2022-10-04T09:17:40;16.55;;;3.97;;
25972;SDS011;13765;51.166;4.466;2022-10-04T09:20:20;13.93;;;4.85;;
25972;SDS011;13765;51.166;4.466;2022-10-04T09:28:24;9.30;;;3.95;;
25972;SDS011;13765;51.166;4.466;2022-10-04T09:36:29;12.43;;;4.28;;
25972;SDS011;13765;51.166;4.466;2022-10-04T09:52:52;15.90;;;4.57;;
25972;SDS011;13765;51.166;4.466;2022-10-04T09:56:32;12.68;;;4.20;;
25972;SDS011;13765;51.166;4.466;2022-10-04T10:01:15;18.33;;;4.57;;
25972;SDS011;13765;51.166;4.466;2022-10-04T10:04:20;10.07;;;3.58;;
25972;SDS011;13765;51.166;4.466;2022-10-04T10:38:28;14.00;;;3.85;;
25972;SDS011;13765;51.166;4.466;2022-10-04T10:44:14;12.25;;;3.53;;
25972;SDS011;13765;51.166;4.466;2022-10-04T10:46:57;12.68;;;4.15;;
25972;SDS011;13765;51.166;4.466;2022-10-04T10:49:40;10.93;;;3.35;;
25972;SDS011;13765;51.166;4.466;2022-10-04T11:00:22;15.32;;;4.03;;
25972;SDS011;13765;51.166;4.466;2022-10-04T11:25:03;11.70;;;3.00;;
25972;SDS011;13765;51.166;4.466;2022-10-04T11:30:36;13.82;;;3.13;;
25972;SDS011;13765;51.166;4.466;2022-10-04T11:36:36;13.63;;;4.32;;
25972;SDS011;13765;51.166;4.466;2022-10-04T11:39:45;10.50;;;2.80;;
25972;SDS011;13765;51.166;4.466;2022-10-04T11:47:27;14.65;;;3.55;;
25972;SDS011;13765;51.166;4.466;2022-10-04T11:50:13;17.77;;;3.03;;
25972;SDS011;13765;51.166;4.466;2022-10-04T12:01:43;12.77;;;2.95;;
25972;SDS011;13765;51.166;4.466;2022-10-04T12:21:28;9.20;;;3.13;;
25972;SDS011;13765;51.166;4.466;2022-10-04T12:32:22;9.43;;;2.97;;
25972;SDS011;13765;51.166;4.466;2022-10-04T12:46:49;12.75;;;3.38;;
25972;SDS011;13765;51.166;4.466;2022-10-04T12:49:25;7.05;;;3.13;;
25972;SDS011;13765;51.166;4.466;2022-10-04T12:52:24;12.38;;;3.63;;
25972;SDS011;13765;51.166;4.466;2022-10-04T13:13:51;13.02;;;3.20;;
25972;SDS011;13765;51.166;4.466;2022-10-04T13:32:48;8.52;;;2.45;;
25972;SDS011;13765;51.166;4.466;2022-10-04T13:49:04;6.40;;;2.30;;
25972;SDS011;13765;51.166;4.466;2022-10-04T14:08:49;10.65;;;2.53;;
25972;SDS011;13765;51.166;4.466;2022-10-04T14:23:42;10.10;;;3.20;;
25972;SDS011;13765;51.166;4.466;2022-10-04T14:40:44;5.13;;;2.40;;
25972;SDS011;13765;51.166;4.466;2022-10-04T14:58:16;8.35;;;2.58;;
25972;SDS011;13765;51.166;4.466;2022-10-04T15:03:30;8.15;;;2.15;;
25972;SDS011;13765;51.166;4.466;2022-10-04T15:06:04;8.30;;;2.38;;
25972;SDS011;13765;51.166;4.466;2022-10-04T15:11:16;5.72;;;2.30;;
25972;SDS011;13765;51.166;4.466;2022-10-04T15:14:02;10.35;;;2.42;;
25972;SDS011;13765;51.166;4.466;2022-10-04T15:16:54;7.28;;;2.47;;
25972;SDS011;13765;51.166;4.466;2022-10-04T15:19:26;7.78;;;2.20;;
25972;SDS011;13765;51.166;4.466;2022-10-04T15:22:00;5.90;;;1.98;;
25972;SDS011;13765;51.166;4.466;2022-10-04T15:24:28;6.50;;;2.40;;
25972;SDS011;13765;51.166;4.466;2022-10-04T15:32:43;5.85;;;2.22;;
25972;SDS011;13765;51.166;4.466;2022-10-04T15:39:07;10.45;;;2.20;;
25972;SDS011;13765;51.166;4.466;2022-10-04T15:44:32;13.38;;;1.80;;
25972;SDS011;13765;51.166;4.466;2022-10-04T15:47:49;8.10;;;2.15;;
25972;SDS011;13765;51.166;4.466;2022-10-04T15:50:53;3.83;;;1.65;;
25972;SDS011;13765;51.166;4.466;2022-10-04T15:53:43;6.53;;;2.25;;
25972;SDS011;13765;51.166;4.466;2022-10-04T15:56:40;5.75;;;2.00;;
25972;SDS011;13765;51.166;4.466;2022-10-04T16:04:54;4.65;;;2.03;;
25972;SDS011;13765;51.166;4.466;2022-10-04T16:10:01;7.00;;;1.90;;
25972;SDS011;13765;51.166;4.466;2022-10-04T16:37:25;9.35;;;2.47;;
25972;SDS011;13765;51.166;4.466;2022-10-04T17:10:31;5.47;;;2.25;;
25972;SDS011;13765;51.166;4.466;2022-10-04T17:16:13;8.73;;;2.53;;
25972;SDS011;13765;51.166;4.466;2022-10-04T17:19:07;8.18;;;2.58;;
25972;SDS011;13765;51.166;4.466;2022-10-04T17:21:46;6.97;;;2.15;;
25972;SDS011;13765;51.166;4.466;2022-10-04T17:30:21;7.43;;;2.72;;
25972;SDS011;13765;51.166;4.466;2022-10-04T17:43:37;11.23;;;3.83;;
25972;SDS011;13765;51.166;4.466;2022-10-04T17:48:47;7.60;;;1.83;;
25972;SDS011;13765;51.166;4.466;2022-10-04T17:51:40;5.22;;;2.50;;
25972;SDS011;13765;51.166;4.466;2022-10-04T17:54:38;4.30;;;1.88;;
25972;SDS011;13765;51.166;4.466;2022-10-04T17:57:28;4.63;;;2.30;;
25972;SDS011;13765;51.166;4.466;2022-10-04T18:00:11;9.25;;;3.17;;
25972;SDS011;13765;51.166;4.466;2022-10-04T18:05:28;17.00;;;3.55;;
25972;SDS011;13765;51.166;4.466;2022-10-04T18:10:26;9.63;;;3.15;;
25972;SDS011;13765;51.166;4.466;2022-10-04T18:18:49;14.90;;;3.92;;
25972;SDS011;13765;51.166;4.466;2022-10-04T18:23:54;10.20;;;3.40;;
25972;SDS011;13765;51.166;4.466;2022-10-04T18:26:25;12.43;;;4.60;;
25972;SDS011;13765;51.166;4.466;2022-10-04T18:28:53;9.30;;;3.17;;
25972;SDS011;13765;51.166;4.466;2022-10-04T18:31:22;10.20;;;2.90;;
25972;SDS011;13765;51.166;4.466;2022-10-04T18:33:56;9.43;;;4.00;;
25972;SDS011;13765;51.166;4.466;2022-10-04T18:36:29;18.60;;;3.97;;
25972;SDS011;13765;51.166;4.466;2022-10-04T18:39:21;16.38;;;4.78;;
25972;SDS011;13765;51.166;4.466;2022-10-04T18:41:57;9.00;;;3.03;;
25972;SDS011;13765;51.166;4.466;2022-10-04T18:44:43;9.48;;;3.42;;
25972;SDS011;13765;51.166;4.466;2022-10-04T18:47:36;10.25;;;2.78;;
25972;SDS011;13765;51.166;4.466;2022-10-04T19:01:18;9.60;;;3.53;;
25972;SDS011;13765;51.166;4.466;2022-10-04T19:04:07;11.73;;;3.55;;
25972;SDS011;13765;51.166;4.466;2022-10-04T19:06:46;13.18;;;4.07;;
25972;SDS011;13765;51.166;4.466;2022-10-04T19:10:00;11.55;;;3.90;;
25972;SDS011;13765;51.166;4.466;2022-10-04T19:12:23;12.25;;;3.83;;
25972;SDS011;13765;51.166;4.466;2022-10-04T19:15:21;10.25;;;3.55;;
25972;SDS011;13765;51.166;4.466;2022-10-04T19:26:36;11.43;;;3.38;;
25972;SDS011;13765;51.166;4.466;2022-10-04T19:29:16;15.95;;;4.70;;
25972;SDS011;13765;51.166;4.466;2022-10-04T19:32:02;17.58;;;4.28;;
25972;SDS011;13765;51.166;4.466;2022-10-04T19:40:31;14.23;;;4.38;;
25972;SDS011;13765;51.166;4.466;2022-10-04T19:43:13;10.63;;;3.60;;
25972;SDS011;13765;51.166;4.466;2022-10-04T19:48:56;11.65;;;4.30;;
25972;SDS011;13765;51.166;4.466;2022-10-04T19:51:27;15.70;;;4.63;;
25972;SDS011;13765;51.166;4.466;2022-10-04T19:54:13;12.38;;;4.22;;
25972;SDS011;13765;51.166;4.466;2022-10-04T19:56:44;14.55;;;4.43;;
25972;SDS011;13765;51.166;4.466;2022-10-04T19:59:16;15.20;;;4.00;;
25972;SDS011;13765;51.166;4.466;2022-10-04T20:01:51;12.85;;;3.88;;
25972;SDS011;13765;51.166;4.466;2022-10-04T20:04:17;14.85;;;4.43;;
25972;SDS011;13765;51.166;4.466;2022-10-04T20:07:06;11.50;;;4.47;;
25972;SDS011;13765;51.166;4.466;2022-10-04T20:09:54;13.73;;;4.15;;
25972;SDS011;13765;51.166;4.466;2022-10-04T20:15:56;18.73;;;5.43;;
25972;SDS011;13765;51.166;4.466;2022-10-04T20:17:59;9.32;;;3.55;;
25972;SDS011;13765;51.166;4.466;2022-10-04T20:23:05;13.13;;;3.70;;
25972;SDS011;13765;51.166;4.466;2022-10-04T20:28:07;11.93;;;3.38;;
25972;SDS011;13765;51.166;4.466;2022-10-04T20:38:47;11.00;;;4.05;;
25972;SDS011;13765;51.166;4.466;2022-10-04T20:44:37;11.88;;;3.20;;
25972;SDS011;13765;51.166;4.466;2022-10-04T20:50:16;13.68;;;4.15;;
25972;SDS011;13765;51.166;4.466;2022-10-04T20:52:55;12.77;;;4.13;;
25972;SDS011;13765;51.166;4.466;2022-10-04T20:55:26;9.55;;;3.63;;
25972;SDS011;13765;51.166;4.466;2022-10-04T20:58:00;14.30;;;4.90;;
25972;SDS011;13765;51.166;4.466;2022-10-04T21:00:30;23.98;;;4.47;;
25972;SDS011;13765;51.166;4.466;2022-10-04T21:03:07;9.10;;;3.28;;
25972;SDS011;13765;51.166;4.466;2022-10-04T21:05:57;10.68;;;3.53;;
25972;SDS011;13765;51.166;4.466;2022-10-04T21:08:25;13.30;;;3.97;;
25972;SDS011;13765;51.166;4.466;2022-10-04T21:11:05;14.63;;;4.40;;
25972;SDS011;13765;51.166;4.466;2022-10-04T21:13:47;13.05;;;4.13;;
25972;SDS011;13765;51.166;4.466;2022-10-04T21:21:52;10.77;;;3.35;;
25972;SDS011;13765;51.166;4.466;2022-10-04T21:27:09;13.60;;;4.03;;
25972;SDS011;13765;51.166;4.466;2022-10-04T21:29:36;11.85;;;3.85;;
25972;SDS011;13765;51.166;4.466;2022-10-04T21:32:05;11.70;;;3.88;;
25972;SDS011;13765;51.166;4.466;2022-10-04T21:34:31;14.20;;;4.07;;
25972;SDS011;13765;51.166;4.466;2022-10-04T21:36:56;11.80;;;4.03;;
25972;SDS011;13765;51.166;4.466;2022-10-04T21:39:25;11.75;;;3.85;;
25972;SDS011;13765;51.166;4.466;2022-10-04T21:41:51;13.38;;;4.35;;
25972;SDS011;13765;51.166;4.466;2022-10-04T21:44:20;14.05;;;4.18;;
25972;SDS011;13765;51.166;4.466;2022-10-04T21:46:48;15.48;;;4.90;;
25972;SDS011;13765;51.166;4.466;2022-10-04T21:49:13;13.90;;;4.25;;
25972;SDS011;13765;51.166;4.466;2022-10-04T21:51:39;11.82;;;3.80;;
25972;SDS011;13765;51.166;4.466;2022-10-04T21:54:10;18.88;;;4.57;;
25972;SDS011;13765;51.166;4.466;2022-10-04T21:56:38;12.70;;;3.80;;
25972;SDS011;13765;51.166;4.466;2022-10-04T21:59:09;13.90;;;4.97;;
25972;SDS011;13765;51.166;4.466;2022-10-04T22:01:34;15.75;;;4.03;;
25972;SDS011;13765;51.166;4.466;2022-10-04T22:04:00;9.15;;;3.45;;
25972;SDS011;13765;51.166;4.466;2022-10-04T22:06:33;16.55;;;3.95;;
25972;SDS011;13765;51.166;4.466;2022-10-04T22:09:01;13.98;;;3.45;;
25972;SDS011;13765;51.166;4.466;2022-10-04T22:11:30;9.00;;;3.20;;
25972;SDS011;13765;51.166;4.466;2022-10-04T22:13:56;13.48;;;4.07;;
25972;SDS011;13765;51.166;4.466;2022-10-04T22:16:24;15.20;;;5.00;;
25972;SDS011;13765;51.166;4.466;2022-10-04T22:18:50;14.45;;;4.25;;
25972;SDS011;13765;51.166;4.466;2022-10-04T22:21:16;10.68;;;4.38;;
25972;SDS011;13765;51.166;4.466;2022-10-04T22:23:42;12.80;;;4.18;;
25972;SDS011;13765;51.166;4.466;2022-10-04T22:26:21;14.57;;;3.97;;
25972;SDS011;13765;51.166;4.466;2022-10-04T22:28:52;15.90;;;4.03;;
25972;SDS011;13765;51.166;4.466;2022-10-04T22:31:19;14.20;;;4.10;;
25972;SDS011;13765;51.166;4.466;2022-10-04T22:33:49;12.32;;;3.95;;
25972;SDS011;13765;51.166;4.466;2022-10-04T22:41:33;14.63;;;4.68;;
25972;SDS011;13765;51.166;4.466;2022-10-04T22:44:06;17.80;;;4.75;;
25972;SDS011;13765;51.166;4.466;2022-10-04T22:46:39;15.88;;;5.47;;
25972;SDS011;13765;51.166;4.466;2022-10-04T22:49:10;13.20;;;4.10;;
25972;SDS011;13765;51.166;4.466;2022-10-04T22:51:41;12.55;;;4.20;;
25972;SDS011;13765;51.166;4.466;2022-10-04T22:54:12;17.15;;;4.05;;
25972;SDS011;13765;51.166;4.466;2022-10-04T22:56:42;10.93;;;4.10;;
25972;SDS011;13765;51.166;4.466;2022-10-04T22:59:09;12.23;;;3.88;;
25972;SDS011;13765;51.166;4.466;2022-10-04T23:01:38;18.60;;;4.88;;
25972;SDS011;13765;51.166;4.466;2022-10-04T23:06:45;11.90;;;3.75;;
25972;SDS011;13765;51.166;4.466;2022-10-04T23:09:10;10.32;;;3.60;;
25972;SDS011;13765;51.166;4.466;2022-10-04T23:11:38;15.15;;;4.35;;
25972;SDS011;13765;51.166;4.466;2022-10-04T23:14:07;9.15;;;4.40;;
25972;SDS011;13765;51.166;4.466;2022-10-04T23:16:35;14.23;;;4.55;;
25972;SDS011;13765;51.166;4.466;2022-10-04T23:19:13;11.80;;;4.45;;
25972;SDS011;13765;51.166;4.466;2022-10-04T23:21:42;13.65;;;3.90;;
25972;SDS011;13765;51.166;4.466;2022-10-04T23:26:38;10.55;;;4.15;;
25972;SDS011;13765;51.166;4.466;2022-10-04T23:29:06;18.52;;;4.40;;
25972;SDS011;13765;51.166;4.466;2022-10-04T23:31:42;13.65;;;4.68;;
25972;SDS011;13765;51.166;4.466;2022-10-04T23:37:02;12.23;;;5.00;;
25972;SDS011;13765;51.166;4.466;2022-10-04T23:39:37;16.27;;;5.28;;
25972;SDS011;13765;51.166;4.466;2022-10-04T23:42:05;15.20;;;5.25;;
25972;SDS011;13765;51.166;4.466;2022-10-04T23:44:57;18.40;;;4.65;;
25972;SDS011;13765;51.166;4.466;2022-10-04T23:47:29;16.50;;;4.78;;
25972;SDS011;13765;51.166;4.466;2022-10-04T23:49:58;15.57;;;4.72;;
25972;SDS011;13765;51.166;4.466;2022-10-04T23:52:27;16.17;;;5.03;;
25972;SDS011;13765;51.166;4.466;2022-10-04T23:55:09;11.18;;;4.47;;
25972;SDS011;13765;51.166;4.466;2022-10-04T23:57:46;13.88;;;4.72;;
